| time (UTC) | temp F | wind direction | speed MPH | gust MPH | rain 1hr in | rain 24hr in | rain mn in | humidity % | barometer mb |
| 20260509050017 | 60 | 270 | 1.0 | 5.0 | 0.00 | 0.00 | 0.00 | 65 | 1033.0 |
| 20260509043019 | 61 | 293 | 1.0 | 4.0 | 0.00 | 0.00 | 0.00 | 64 | 1033.3 |
| 20260509040117 | 61 | 293 | 2.0 | 4.0 | 0.00 | 0.00 | 0.00 | 64 | 1033.6 |
| 20260509033018 | 59 | 315 | 2.0 | 3.0 | 0.00 | 0.00 | 0.00 | 67 | 1033.8 |
| 20260509030018 | 60 | 293 | 2.0 | 4.0 | 0.00 | 0.00 | 0.00 | 68 | 1034.3 |
| 20260509023017 | 58 | 315 | 2.0 | 4.0 | 0.00 | 0.00 | 0.00 | 70 | 1034.5 |
| 20260509020017 | 57 | 0 | 3.0 | 11.0 | 0.00 | 0.00 | 0.00 | 69 | 1035.0 |
| 20260509013017 | 58 | 0 | 3.0 | 8.0 | 0.00 | 0.00 | 0.00 | 67 | 1035.2 |
| 20260509010016 | 58 | 0 | 2.0 | 6.0 | 0.00 | 0.00 | 0.00 | 59 | 1035.4 |
| 20260509003017 | 57 | 23 | 2.0 | 7.0 | 0.00 | 0.00 | 0.00 | 62 | 1035.3 |
| 20260509000038 | 57 | 113 | 1.0 | 6.0 | 0.00 | 0.00 | 0.00 | 60 | 1035.3 |
| 20260508233018 | 56 | 113 | 1.0 | 4.0 | 0.00 | 0.00 | 0.00 | 64 | 1035.3 |
| 20260508230016 | 54 | 113 | 2.0 | 6.0 | 0.00 | 0.00 | 0.00 | 70 | 1035.3 |
| 20260508223016 | 51 | 68 | 1.0 | 3.0 | 0.00 | 0.00 | 0.00 | 77 | 1034.8 |
| 20260508220018 | 45 | 0.0 | 3.0 | 0.00 | 0.00 | 0.00 | 90 | 1033.9 | |
| 20260508213018 | 42 | 0.0 | 2.0 | 0.00 | 0.00 | 0.00 | 94 | 1032.9 | |
| 20260508210018 | 40 | 0.0 | 0.0 | 0.00 | 0.00 | 0.00 | 94 | 1032.4 | |
| 20260508203018 | 40 | 0.0 | 4.0 | 0.00 | 0.00 | 0.00 | 94 | 1032.1 | |
| 20260508193017 | 40 | 0.0 | 1.0 | 0.00 | 0.00 | 0.00 | 92 | 1031.4 | |
| 20260508190017 | 41 | 0.0 | 3.0 | 0.00 | 0.00 | 0.00 | 92 | 1031.4 | |
| 20260508183038 | 42 | 0.0 | 3.0 | 0.00 | 0.00 | 0.00 | 91 | 1031.3 | |
| 20260508180018 | 42 | 0.0 | 4.0 | 0.00 | 0.00 | 0.00 | 92 | 1031.1 | |
| 20260508173018 | 42 | 0.0 | 2.0 | 0.00 | 0.00 | 0.00 | 92 | 1031.2 | |
| 20260508170018 | 43 | 0.0 | 5.0 | 0.00 | 0.00 | 0.00 | 92 | 1031.3 | |
| 20260508163018 | 43 | 0.0 | 5.0 | 0.00 | 0.00 | 0.00 | 91 | 1031.4 | |
| 20260508160018 | 44 | 113 | 1.0 | 4.0 | 0.00 | 0.00 | 0.00 | 91 | 1032.0 |
| 20260508153017 | 45 | 0.0 | 6.0 | 0.00 | 0.00 | 0.00 | 91 | 1031.9 | |
| 20260508150017 | 45 | 0 | 1.0 | 7.0 | 0.00 | 0.00 | 0.00 | 91 | 1031.8 |
| 20260508143017 | 45 | 270 | 2.0 | 7.0 | 0.00 | 0.00 | 0.00 | 91 | 1031.9 |
| 20260508140019 | 45 | 293 | 2.0 | 8.0 | 0.00 | 0.00 | 0.00 | 91 | 1031.7 |
| 20260508133019 | 45 | 248 | 2.0 | 12.0 | 0.00 | 0.00 | 0.00 | 91 | 1031.7 |
| 20260508130040 | 45 | 158 | 2.0 | 8.0 | 0.00 | 0.00 | 0.00 | 91 | 1032.4 |
| 20260508123018 | 44 | 23 | 2.0 | 9.0 | 0.00 | 0.00 | 0.00 | 92 | 1032.0 |
| 20260508120018 | 44 | 270 | 2.0 | 11.0 | 0.00 | 0.00 | 0.00 | 92 | 1031.9 |
| 20260508113018 | 44 | 248 | 2.0 | 11.0 | 0.00 | 0.00 | 0.00 | 93 | 1031.7 |
| 20260508110018 | 45 | 248 | 1.0 | 8.0 | 0.00 | 0.00 | 0.00 | 92 | 1031.9 |
| 20260508103018 | 45 | 315 | 2.0 | 8.0 | 0.00 | 0.00 | 0.00 | 93 | 1032.2 |
| 20260508100038 | 45 | 270 | 2.0 | 11.0 | 0.00 | 0.00 | 0.00 | 94 | 1031.6 |
| 20260508093018 | 44 | 270 | 2.0 | 11.0 | 0.00 | 0.00 | 0.00 | 94 | 1031.3 |
| 20260508090040 | 44 | 270 | 2.0 | 9.0 | 0.00 | 0.00 | 0.00 | 94 | 1031.4 |
| 20260508083018 | 44 | 270 | 3.0 | 12.0 | 0.00 | 0.00 | 0.00 | 94 | 1030.9 |
| 20260508080018 | 44 | 270 | 3.0 | 10.0 | 0.00 | 0.00 | 0.00 | 94 | 1030.3 |
| 20260508073019 | 43 | 270 | 4.0 | 11.0 | 0.00 | 0.00 | 0.00 | 94 | 1029.9 |
| 20260508070017 | 43 | 270 | 2.0 | 8.0 | 0.00 | 0.00 | 0.00 | 95 | 1030.3 |
| 20260508063018 | 43 | 270 | 3.0 | 11.0 | 0.00 | 0.00 | 0.00 | 95 | 1030.0 |
| 20260508060017 | 43 | 270 | 4.0 | 11.0 | 0.00 | 0.00 | 0.00 | 95 | 1029.7 |
| 20260508053118 | 42 | 270 | 3.0 | 13.0 | 0.00 | 0.00 | 0.00 | 95 | 1029.6 |